Time;durP1;ratioP1;P1;durP2;ratioP2;P2;SDS_P1;SDS_P2;PMS_P1;PMS_P2;Temp;Humidity;BMP_temperature;BMP_pressure;BME280_temperature;BME280_humidity;BME280_pressure;Samples;Min_cycle;Max_cycle;Signal;HPM_P1;HPM_P2
2022/10/12 00:01:40;;;;;;;111.20;73.23;;;;;;;;;;5027552;28;20600;-42
2022/10/12 00:04:07;;;;;;;103.23;69.27;;;;;;;;;;5026279;28;20171;-43
2022/10/12 00:06:33;;;;;;;90.10;61.13;;;;;;;;;;5025671;28;20176;-43
2022/10/12 00:08:59;;;;;;;90.33;59.07;;;;;;;;;;5022896;28;20669;-43
2022/10/12 00:11:27;;;;;;;88.40;59.30;;;;;;;;;;5025569;28;20179;-46
2022/10/12 00:13:53;;;;;;;110.87;67.77;;;;;;;;;;5024620;28;20517;-43
2022/10/12 00:16:20;;;;;;;86.80;60.20;;;;;;;;;;5024126;28;20276;-42
2022/10/12 00:18:50;;;;;;;91.17;60.53;;;;;;;;;;5023589;28;20719;-43
2022/10/12 00:21:16;;;;;;;84.87;57.67;;;;;;;;;;5024678;28;20184;-43
2022/10/12 00:23:43;;;;;;;85.47;56.50;;;;;;;;;;5024893;28;20286;-43
2022/10/12 00:26:20;;;;;;;81.13;56.37;;;;;;;;;;5027668;28;20188;-43
2022/10/12 00:28:46;;;;;;;88.30;60.27;;;;;;;;;;5023272;28;20192;-43
2022/10/12 00:31:16;;;;;;;81.50;55.57;;;;;;;;;;5023221;28;20275;-41
2022/10/12 00:33:42;;;;;;;84.83;57.20;;;;;;;;;;5024784;28;20191;-43
2022/10/12 00:36:11;;;;;;;74.80;52.43;;;;;;;;;;5022443;28;20869;-43
2022/10/12 00:38:37;;;;;;;79.67;53.43;;;;;;;;;;5015396;28;20186;-43
2022/10/12 00:41:04;;;;;;;75.80;53.60;;;;;;;;;;5012764;28;20175;-43
2022/10/12 00:43:38;;;;;;;70.77;50.60;;;;;;;;;;5023055;28;20202;-42
2022/10/12 00:46:42;;;;;;;69.17;48.80;;;;;;;;;;5025600;28;20600;-44
2022/10/12 00:49:12;;;;;;;70.17;48.70;;;;;;;;;;4976286;28;20295;-44
2022/10/12 00:51:39;;;;;;;68.13;47.40;;;;;;;;;;4978618;28;20814;-43
2022/10/12 00:54:06;;;;;;;80.63;54.00;;;;;;;;;;4998874;28;20192;-43
2022/10/12 00:56:34;;;;;;;71.63;50.47;;;;;;;;;;5025559;28;20199;-43
2022/10/12 00:59:01;;;;;;;76.53;50.97;;;;;;;;;;5025337;28;20579;-43
2022/10/12 01:01:27;;;;;;;81.27;53.77;;;;;;;;;;5022332;28;20188;-43
2022/10/12 01:03:53;;;;;;;80.43;53.30;;;;;;;;;;5019790;28;20171;-42
2022/10/12 01:06:19;;;;;;;72.23;50.47;;;;;;;;;;5018151;28;20187;-43
2022/10/12 01:08:46;;;;;;;72.10;49.97;;;;;;;;;;5020811;28;21088;-42
2022/10/12 01:11:12;;;;;;;71.00;47.07;;;;;;;;;;5024177;28;20180;-43
2022/10/12 01:13:38;;;;;;;81.10;51.03;;;;;;;;;;5023625;28;20953;-43
2022/10/12 01:16:07;;;;;;;76.87;52.37;;;;;;;;;;5023212;28;20962;-42
2022/10/12 01:18:40;;;;;;;67.17;47.43;;;;;;;;;;5019256;28;20538;-42
2022/10/12 01:21:12;;;;;;;71.33;48.83;;;;;;;;;;5016693;28;20236;-43
2022/10/12 01:23:45;;;;;;;70.23;49.03;;;;;;;;;;5018598;28;20650;-43
2022/10/12 01:26:21;;;;;;;67.60;48.40;;;;;;;;;;5021596;28;20195;-42
2022/10/12 01:29:06;;;;;;;65.87;46.93;;;;;;;;;;5022578;28;20203;-42
2022/10/12 01:31:45;;;;;;;67.33;46.77;;;;;;;;;;5027106;28;20335;-43
2022/10/12 01:34:17;;;;;;;68.17;47.00;;;;;;;;;;5023004;28;21115;-43
2022/10/12 01:36:53;;;;;;;66.63;46.57;;;;;;;;;;5020184;28;20207;-44
2022/10/12 01:39:24;;;;;;;76.23;51.17;;;;;;;;;;5016986;28;20924;-44
2022/10/12 01:41:53;;;;;;;77.93;52.83;;;;;;;;;;5020242;28;20388;-45
2022/10/12 01:44:23;;;;;;;73.30;50.87;;;;;;;;;;5013488;28;20636;-44
2022/10/12 01:46:50;;;;;;;80.80;53.30;;;;;;;;;;5017851;28;20183;-43
2022/10/12 01:49:17;;;;;;;78.67;52.33;;;;;;;;;;5020243;28;21164;-44
2022/10/12 01:52:07;;;;;;;81.57;54.67;;;;;;;;;;5019437;28;20260;-43
2022/10/12 01:54:52;;;;;;;75.70;52.07;;;;;;;;;;5016127;28;20225;-44
2022/10/12 01:57:30;;;;;;;66.27;47.77;;;;;;;;;;5017312;28;20477;-44
2022/10/12 01:59:56;;;;;;;65.47;47.63;;;;;;;;;;5021635;28;20171;-45
2022/10/12 02:02:22;;;;;;;70.57;49.13;;;;;;;;;;5012816;28;20194;-43
2022/10/12 02:04:48;;;;;;;68.20;47.57;;;;;;;;;;5017620;28;20482;-43
2022/10/12 02:07:20;;;;;;;77.00;53.40;;;;;;;;;;5016938;28;20397;-43
2022/10/12 02:09:46;;;;;;;70.70;49.03;;;;;;;;;;5018515;28;20262;-43
2022/10/12 02:12:15;;;;;;;71.07;49.10;;;;;;;;;;5015941;28;20568;-45
2022/10/12 02:14:45;;;;;;;67.50;46.37;;;;;;;;;;5017676;28;20684;-43
2022/10/12 02:17:13;;;;;;;70.83;49.47;;;;;;;;;;5014752;28;20175;-43
2022/10/12 02:19:42;;;;;;;65.33;47.47;;;;;;;;;;5018161;28;21276;-45
2022/10/12 02:22:08;;;;;;;71.50;49.43;;;;;;;;;;5022457;28;20182;-43
2022/10/12 02:24:36;;;;;;;74.77;53.10;;;;;;;;;;5025844;28;20334;-46
2022/10/12 02:27:03;;;;;;;73.70;51.83;;;;;;;;;;5023698;28;20434;-43
2022/10/12 02:29:32;;;;;;;78.73;56.10;;;;;;;;;;5018195;28;20241;-43
2022/10/12 02:32:08;;;;;;;84.67;58.27;;;;;;;;;;5019865;28;20365;-43
2022/10/12 02:34:37;;;;;;;80.30;56.27;;;;;;;;;;5020668;28;21160;-43
2022/10/12 02:37:13;;;;;;;81.80;55.77;;;;;;;;;;5021421;28;20215;-43
2022/10/12 02:39:53;;;;;;;83.83;58.73;;;;;;;;;;5025189;28;20175;-42
2022/10/12 02:42:21;;;;;;;82.60;55.67;;;;;;;;;;5022675;28;20749;-43
2022/10/12 02:44:47;;;;;;;86.00;57.83;;;;;;;;;;5019652;28;20547;-43
2022/10/12 02:47:14;;;;;;;78.97;55.33;;;;;;;;;;5018284;28;20311;-43
2022/10/12 02:49:41;;;;;;;81.57;56.90;;;;;;;;;;5021374;28;20175;-43
2022/10/12 02:52:08;;;;;;;84.17;56.33;;;;;;;;;;5022882;28;20887;-43
2022/10/12 02:54:34;;;;;;;87.87;58.90;;;;;;;;;;5020631;28;20410;-43
2022/10/12 02:57:00;;;;;;;91.77;60.53;;;;;;;;;;5020197;28;20176;-43
2022/10/12 02:59:26;;;;;;;92.00;60.37;;;;;;;;;;5016761;28;20261;-43
2022/10/12 03:01:52;;;;;;;90.00;59.93;;;;;;;;;;5017196;28;20174;-43
2022/10/12 03:04:18;;;;;;;77.20;53.87;;;;;;;;;;5020782;28;20211;-46
2022/10/12 03:06:44;;;;;;;80.17;54.20;;;;;;;;;;5021210;28;20218;-43
2022/10/12 03:09:10;;;;;;;76.53;53.63;;;;;;;;;;5018420;28;20535;-43
2022/10/12 03:11:36;;;;;;;73.73;53.17;;;;;;;;;;5024460;28;20270;-43
2022/10/12 03:14:03;;;;;;;82.43;56.20;;;;;;;;;;5024546;28;20775;-43
2022/10/12 03:16:29;;;;;;;73.47;50.00;;;;;;;;;;5023463;28;20195;-43
2022/10/12 03:18:55;;;;;;;76.90;52.53;;;;;;;;;;5021527;28;21156;-44
2022/10/12 03:21:21;;;;;;;82.20;55.03;;;;;;;;;;5021455;28;21163;-43
2022/10/12 03:23:47;;;;;;;76.13;53.43;;;;;;;;;;5027273;28;20581;-43
2022/10/12 03:26:13;;;;;;;96.77;58.73;;;;;;;;;;5026233;28;20235;-44
2022/10/12 03:28:39;;;;;;;87.57;58.60;;;;;;;;;;5022746;28;21053;-43
2022/10/12 03:31:05;;;;;;;87.57;57.23;;;;;;;;;;5022613;28;20176;-43
2022/10/12 03:33:32;;;;;;;76.07;53.97;;;;;;;;;;5023876;28;20184;-43
2022/10/12 03:35:58;;;;;;;74.93;52.00;;;;;;;;;;5026204;28;21090;-43
2022/10/12 03:38:24;;;;;;;82.87;54.87;;;;;;;;;;5024138;28;20752;-43
2022/10/12 03:40:50;;;;;;;83.90;57.23;;;;;;;;;;5020457;28;20171;-46
2022/10/12 03:43:17;;;;;;;83.50;54.73;;;;;;;;;;5023517;28;20856;-44
2022/10/12 03:45:43;;;;;;;88.17;59.83;;;;;;;;;;5026431;28;20179;-43
2022/10/12 03:48:09;;;;;;;90.60;59.93;;;;;;;;;;5025412;28;20254;-44
2022/10/12 03:50:36;;;;;;;86.63;59.07;;;;;;;;;;5026559;28;20199;-44
2022/10/12 03:53:02;;;;;;;85.23;57.43;;;;;;;;;;5019827;28;20732;-44
2022/10/12 03:55:29;;;;;;;88.77;58.33;;;;;;;;;;5021411;28;20301;-44
2022/10/12 03:57:55;;;;;;;80.87;54.60;;;;;;;;;;5023689;28;20799;-43
2022/10/12 04:00:21;;;;;;;89.83;58.87;;;;;;;;;;5025061;28;20230;-44
2022/10/12 04:02:47;;;;;;;87.73;56.57;;;;;;;;;;5023852;28;20613;-42
2022/10/12 04:05:13;;;;;;;89.77;60.47;;;;;;;;;;5024211;28;20189;-42
2022/10/12 04:07:39;;;;;;;92.90;60.93;;;;;;;;;;5021056;28;20179;-43
2022/10/12 04:10:06;;;;;;;83.37;56.00;;;;;;;;;;5022947;28;20295;-43
2022/10/12 04:12:32;;;;;;;83.47;55.80;;;;;;;;;;5024040;28;20210;-43
2022/10/12 04:14:58;;;;;;;79.77;54.00;;;;;;;;;;5026673;28;20277;-44
2022/10/12 04:17:24;;;;;;;93.83;61.70;;;;;;;;;;5023726;28;20215;-44
2022/10/12 04:19:50;;;;;;;92.73;56.80;;;;;;;;;;5020976;28;20207;-44
2022/10/12 04:22:16;;;;;;;77.00;53.20;;;;;;;;;;5023323;28;20184;-44
2022/10/12 04:24:42;;;;;;;76.97;53.03;;;;;;;;;;5020813;28;20168;-44
2022/10/12 04:27:08;;;;;;;83.37;55.73;;;;;;;;;;5022798;28;20192;-45
2022/10/12 04:29:35;;;;;;;76.97;53.07;;;;;;;;;;5021833;28;20169;-46
2022/10/12 04:32:02;;;;;;;85.03;54.57;;;;;;;;;;5020103;28;20253;-45
2022/10/12 04:34:28;;;;;;;82.73;54.20;;;;;;;;;;5020676;28;20654;-45
2022/10/12 04:36:54;;;;;;;86.70;56.33;;;;;;;;;;5025108;28;20310;-44
2022/10/12 04:39:20;;;;;;;88.57;56.80;;;;;;;;;;5022416;28;20362;-45
2022/10/12 04:41:46;;;;;;;88.87;56.30;;;;;;;;;;5023083;28;20786;-44
2022/10/12 04:44:12;;;;;;;72.03;51.53;;;;;;;;;;5018427;28;20183;-43
2022/10/12 04:46:38;;;;;;;81.00;55.43;;;;;;;;;;5020305;28;20188;-43
2022/10/12 04:49:04;;;;;;;85.43;54.07;;;;;;;;;;5023468;28;20491;-43
2022/10/12 04:51:30;;;;;;;83.50;54.70;;;;;;;;;;5027934;28;21273;-43
2022/10/12 04:53:56;;;;;;;89.77;56.00;;;;;;;;;;5026547;28;20214;-43
2022/10/12 04:56:22;;;;;;;87.77;54.30;;;;;;;;;;5024214;28;20235;-41
2022/10/12 04:58:49;;;;;;;86.10;54.67;;;;;;;;;;5021172;28;20777;-43
2022/10/12 05:01:15;;;;;;;78.53;52.07;;;;;;;;;;5022809;28;20588;-45
2022/10/12 05:03:41;;;;;;;89.17;55.00;;;;;;;;;;5025664;28;20295;-43
2022/10/12 05:06:07;;;;;;;79.27;52.20;;;;;;;;;;5026528;28;20527;-43
2022/10/12 05:08:33;;;;;;;86.33;53.93;;;;;;;;;;5023864;28;20190;-44
2022/10/12 05:10:59;;;;;;;81.13;54.27;;;;;;;;;;5021616;28;20188;-44
2022/10/12 05:13:26;;;;;;;86.63;54.27;;;;;;;;;;5019514;28;20517;-43
2022/10/12 05:15:52;;;;;;;83.90;55.60;;;;;;;;;;5018420;28;20207;-45
2022/10/12 05:18:18;;;;;;;85.30;52.60;;;;;;;;;;5025002;28;20204;-44
2022/10/12 05:20:44;;;;;;;88.03;55.60;;;;;;;;;;5020490;28;20682;-45
2022/10/12 05:23:11;;;;;;;75.00;52.27;;;;;;;;;;5019933;28;20348;-46
2022/10/12 05:25:37;;;;;;;74.17;51.47;;;;;;;;;;5020325;28;20609;-45
2022/10/12 05:28:03;;;;;;;72.47;50.10;;;;;;;;;;5015896;28;20412;-43
2022/10/12 05:30:29;;;;;;;69.57;48.13;;;;;;;;;;5020243;28;20468;-43
2022/10/12 05:32:56;;;;;;;74.63;52.37;;;;;;;;;;5024698;28;20643;-44
2022/10/12 05:35:22;;;;;;;72.17;50.10;;;;;;;;;;5024675;28;21088;-44
2022/10/12 05:37:48;;;;;;;68.90;49.27;;;;;;;;;;5021482;28;20542;-44
2022/10/12 05:40:14;;;;;;;80.10;52.57;;;;;;;;;;5019271;28;20204;-45
2022/10/12 05:42:40;;;;;;;80.83;52.60;;;;;;;;;;5025844;28;20182;-44
2022/10/12 05:45:06;;;;;;;80.70;53.27;;;;;;;;;;5022691;28;20594;-45
2022/10/12 05:47:32;;;;;;;82.03;54.70;;;;;;;;;;5022982;28;20237;-46
2022/10/12 05:49:58;;;;;;;92.70;55.33;;;;;;;;;;5026422;28;20264;-45
2022/10/12 05:52:24;;;;;;;82.07;52.13;;;;;;;;;;5024780;28;20180;-47
2022/10/12 05:54:51;;;;;;;86.10;56.27;;;;;;;;;;5024698;28;20290;-45
2022/10/12 05:57:17;;;;;;;90.93;60.17;;;;;;;;;;5026691;28;20176;-45
2022/10/12 05:59:43;;;;;;;79.00;55.10;;;;;;;;;;5028121;28;20186;-43
2022/10/12 06:02:18;;;;;;;75.60;54.50;;;;;;;;;;5022681;28;20965;-43
2022/10/12 06:04:44;;;;;;;83.07;53.67;;;;;;;;;;5023234;28;20160;-42
2022/10/12 06:07:10;;;;;;;81.27;54.53;;;;;;;;;;5027031;28;20615;-44
2022/10/12 06:09:39;;;;;;;75.40;53.50;;;;;;;;;;5028081;28;20249;-44
2022/10/12 06:12:06;;;;;;;94.30;59.37;;;;;;;;;;5025495;28;20186;-44
2022/10/12 06:14:32;;;;;;;90.67;56.67;;;;;;;;;;5022577;28;20608;-45
2022/10/12 06:16:58;;;;;;;89.90;58.00;;;;;;;;;;5020288;28;20632;-45
2022/10/12 06:19:24;;;;;;;88.87;56.70;;;;;;;;;;5022386;28;20580;-44
2022/10/12 06:21:50;;;;;;;84.17;56.20;;;;;;;;;;5027746;28;20179;-44
2022/10/12 06:24:16;;;;;;;86.37;53.00;;;;;;;;;;5027261;28;20469;-44
2022/10/12 06:26:42;;;;;;;82.43;53.50;;;;;;;;;;5025012;28;20668;-43
2022/10/12 06:29:08;;;;;;;72.37;49.13;;;;;;;;;;5022975;28;21039;-44
2022/10/12 06:31:36;;;;;;;80.70;51.07;;;;;;;;;;5021560;28;20221;-43
2022/10/12 06:34:02;;;;;;;78.40;50.67;;;;;;;;;;5024590;28;20711;-44
2022/10/12 06:36:28;;;;;;;70.73;48.40;;;;;;;;;;5021703;28;20611;-44
2022/10/12 06:38:55;;;;;;;74.80;48.97;;;;;;;;;;5017132;28;20616;-44
2022/10/12 06:41:21;;;;;;;75.10;49.27;;;;;;;;;;5027229;28;20172;-44
2022/10/12 06:43:48;;;;;;;70.23;49.30;;;;;;;;;;5024719;28;20196;-43
2022/10/12 06:46:14;;;;;;;69.47;47.30;;;;;;;;;;5025670;28;20327;-44
2022/10/12 06:48:40;;;;;;;70.13;47.80;;;;;;;;;;5021127;28;20175;-42
2022/10/12 06:51:06;;;;;;;69.83;47.93;;;;;;;;;;5023021;28;20181;-42
2022/10/12 06:53:33;;;;;;;81.87;53.43;;;;;;;;;;5029920;28;20187;-43
2022/10/12 06:55:59;;;;;;;76.83;52.80;;;;;;;;;;5030127;28;20196;-41
2022/10/12 06:58:26;;;;;;;77.17;53.30;;;;;;;;;;5026740;28;20183;-43
2022/10/12 07:00:52;;;;;;;79.10;52.77;;;;;;;;;;5022134;28;20176;-43
2022/10/12 07:03:19;;;;;;;76.07;52.57;;;;;;;;;;5025900;28;20180;-43
2022/10/12 07:05:45;;;;;;;72.90;50.33;;;;;;;;;;5029091;28;20184;-44
2022/10/12 07:08:11;;;;;;;79.83;55.07;;;;;;;;;;5027245;28;20632;-45
2022/10/12 07:10:37;;;;;;;78.57;54.63;;;;;;;;;;5029373;28;20567;-45
2022/10/12 07:13:03;;;;;;;80.43;55.60;;;;;;;;;;5031033;28;20187;-45
2022/10/12 07:15:30;;;;;;;83.07;58.53;;;;;;;;;;5027384;28;20585;-43
2022/10/12 07:17:56;;;;;;;81.57;53.20;;;;;;;;;;5030939;28;20172;-43
2022/10/12 07:20:22;;;;;;;77.10;54.47;;;;;;;;;;5023928;28;20634;-43
2022/10/12 07:22:48;;;;;;;81.80;57.63;;;;;;;;;;5026384;28;20499;-43
2022/10/12 07:25:14;;;;;;;76.60;56.13;;;;;;;;;;5030363;28;20176;-46
2022/10/12 07:27:40;;;;;;;77.23;53.83;;;;;;;;;;5033605;28;20199;-43
2022/10/12 07:30:07;;;;;;;79.10;55.67;;;;;;;;;;5030291;28;20603;-43
2022/10/12 07:32:33;;;;;;;72.17;51.43;;;;;;;;;;5026541;28;20252;-46
2022/10/12 07:34:59;;;;;;;70.73;50.20;;;;;;;;;;5026923;28;20619;-44
2022/10/12 07:37:25;;;;;;;68.50;50.20;;;;;;;;;;5026746;28;20712;-46
2022/10/12 07:39:55;;;;;;;69.83;49.23;;;;;;;;;;5029288;28;20266;-45
2022/10/12 07:42:22;;;;;;;72.30;49.77;;;;;;;;;;5030369;28;20180;-44
2022/10/12 07:44:48;;;;;;;70.13;50.10;;;;;;;;;;5029636;28;21039;-45
2022/10/12 07:47:16;;;;;;;69.60;48.53;;;;;;;;;;5028504;28;20616;-44
2022/10/12 07:49:42;;;;;;;67.33;48.83;;;;;;;;;;5027162;28;20623;-46
2022/10/12 07:52:08;;;;;;;59.97;43.97;;;;;;;;;;5025552;28;20291;-45
2022/10/12 07:54:34;;;;;;;64.93;47.80;;;;;;;;;;5022624;28;20256;-45
2022/10/12 07:57:00;;;;;;;61.57;43.93;;;;;;;;;;5025498;28;20203;-45
2022/10/12 07:59:27;;;;;;;66.63;46.63;;;;;;;;;;5024506;28;20767;-43
2022/10/12 08:01:53;;;;;;;65.73;46.80;;;;;;;;;;5024123;28;20180;-43
2022/10/12 08:04:19;;;;;;;64.20;45.53;;;;;;;;;;5024544;28;20172;-44
2022/10/12 08:06:45;;;;;;;64.10;44.97;;;;;;;;;;5025861;28;20184;-44
2022/10/12 08:09:11;;;;;;;61.17;40.50;;;;;;;;;;5026691;28;20203;-44
2022/10/12 08:11:38;;;;;;;57.97;38.27;;;;;;;;;;5029205;28;20448;-44
2022/10/12 08:14:04;;;;;;;53.57;37.23;;;;;;;;;;5024091;28;20180;-44
2022/10/12 08:16:30;;;;;;;53.83;38.43;;;;;;;;;;5024460;28;20199;-43
2022/10/12 08:18:56;;;;;;;52.37;38.37;;;;;;;;;;5025813;28;20394;-43
2022/10/12 08:21:22;;;;;;;54.20;37.80;;;;;;;;;;5027189;28;20182;-43
2022/10/12 08:23:48;;;;;;;52.37;37.57;;;;;;;;;;5027815;28;20618;-44
2022/10/12 08:26:15;;;;;;;52.37;39.23;;;;;;;;;;5025044;28;20303;-44
2022/10/12 08:28:41;;;;;;;55.57;39.50;;;;;;;;;;5023666;28;20251;-46
2022/10/12 08:31:08;;;;;;;58.73;39.77;;;;;;;;;;5025450;28;20622;-43
2022/10/12 08:33:34;;;;;;;58.80;40.00;;;;;;;;;;5027629;28;20182;-44
2022/10/12 08:36:02;;;;;;;56.60;40.57;;;;;;;;;;5029213;28;20203;-45
2022/10/12 08:38:28;;;;;;;53.40;38.60;;;;;;;;;;5027915;28;20593;-44
2022/10/12 08:40:57;;;;;;;51.47;36.00;;;;;;;;;;5028958;28;20171;-45
2022/10/12 08:43:43;;;;;;;53.80;37.33;;;;;;;;;;5026994;28;20928;-44
2022/10/12 08:46:09;;;;;;;54.43;37.70;;;;;;;;;;5026369;28;20896;-44
2022/10/12 08:48:43;;;;;;;56.80;37.83;;;;;;;;;;5027323;28;20826;-45
2022/10/12 08:51:13;;;;;;;51.50;38.63;;;;;;;;;;5027206;28;20180;-45
2022/10/12 08:53:55;;;;;;;50.43;37.20;;;;;;;;;;5028718;28;20192;-46
2022/10/12 08:56:21;;;;;;;51.27;38.03;;;;;;;;;;5025581;28;20203;-44
2022/10/12 08:58:48;;;;;;;44.87;34.10;;;;;;;;;;5028782;28;20536;-43
2022/10/12 09:01:37;;;;;;;51.33;36.33;;;;;;;;;;5027618;28;20167;-43
2022/10/12 09:04:12;;;;;;;45.57;33.80;;;;;;;;;;5024893;28;20259;-44
2022/10/12 09:06:46;;;;;;;43.77;32.93;;;;;;;;;;5024330;28;20206;-44
2022/10/12 09:09:18;;;;;;;43.80;32.70;;;;;;;;;;5023621;28;20785;-44
2022/10/12 09:11:57;;;;;;;45.60;32.93;;;;;;;;;;5030084;28;20430;-43
2022/10/12 09:14:28;;;;;;;50.20;34.57;;;;;;;;;;5028263;28;20494;-44
2022/10/12 09:16:55;;;;;;;42.93;30.83;;;;;;;;;;5022372;28;20727;-43
2022/10/12 09:19:23;;;;;;;45.27;31.37;;;;;;;;;;5025201;28;20695;-44
2022/10/12 09:21:49;;;;;;;42.87;27.43;;;;;;;;;;5027412;28;20423;-44
2022/10/12 09:24:17;;;;;;;38.73;27.23;;;;;;;;;;5029418;28;20182;-44
2022/10/12 09:26:45;;;;;;;39.80;28.83;;;;;;;;;;5028718;28;20291;-44
2022/10/12 09:29:14;;;;;;;42.33;31.27;;;;;;;;;;5026601;28;20253;-44
2022/10/12 09:31:40;;;;;;;39.00;28.83;;;;;;;;;;5028858;28;20185;-44
2022/10/12 09:34:07;;;;;;;41.70;26.03;;;;;;;;;;5029144;28;20314;-44
2022/10/12 09:36:34;;;;;;;33.17;23.57;;;;;;;;;;5027675;28;20652;-44
2022/10/12 09:39:02;;;;;;;35.43;25.10;;;;;;;;;;5023370;28;20684;-43
2022/10/12 09:41:40;;;;;;;32.33;22.00;;;;;;;;;;5022823;28;20529;-43
2022/10/12 09:44:06;;;;;;;39.00;23.80;;;;;;;;;;5027182;28;20576;-43
2022/10/12 09:46:59;;;;;;;39.07;25.40;;;;;;;;;;5028635;28;20179;-42
2022/10/12 09:49:44;;;;;;;37.87;25.17;;;;;;;;;;5024826;28;20179;-43
2022/10/12 09:52:11;;;;;;;35.40;24.07;;;;;;;;;;5023476;28;20603;-43
2022/10/12 09:54:40;;;;;;;37.97;24.53;;;;;;;;;;5027807;28;20183;-43
2022/10/12 09:57:06;;;;;;;31.57;22.57;;;;;;;;;;5033598;28;20393;-43
2022/10/12 09:59:39;;;;;;;39.93;25.33;;;;;;;;;;5028515;28;20536;-43
2022/10/12 10:02:16;;;;;;;40.07;25.23;;;;;;;;;;5025375;28;20176;-43
2022/10/12 10:04:43;;;;;;;35.47;25.10;;;;;;;;;;5027010;28;20345;-43
2022/10/12 10:07:12;;;;;;;36.63;24.43;;;;;;;;;;5027892;28;20180;-43
2022/10/12 10:09:38;;;;;;;32.13;23.07;;;;;;;;;;5030775;28;20179;-41
2022/10/12 10:12:23;;;;;;;33.20;22.77;;;;;;;;;;5024841;28;20350;-43
2022/10/12 10:14:53;;;;;;;35.57;24.03;;;;;;;;;;5024368;28;20630;-42
2022/10/12 10:17:25;;;;;;;34.77;24.20;;;;;;;;;;5024843;28;20701;-43
2022/10/12 10:19:52;;;;;;;37.47;24.60;;;;;;;;;;5026320;28;20182;-42
2022/10/12 10:22:19;;;;;;;30.47;23.60;;;;;;;;;;5035584;28;20652;-43
2022/10/12 10:24:49;;;;;;;37.17;22.13;;;;;;;;;;5032569;28;20410;-43
2022/10/12 10:27:30;;;;;;;29.97;22.53;;;;;;;;;;5028167;28;20772;-43
2022/10/12 10:30:20;;;;;;;34.10;22.80;;;;;;;;;;5030163;28;20303;-43
2022/10/12 10:32:46;;;;;;;32.20;21.10;;;;;;;;;;5027866;28;20191;-43
2022/10/12 10:35:13;;;;;;;28.87;21.57;;;;;;;;;;5031815;28;20681;-43
2022/10/12 10:37:42;;;;;;;36.37;22.87;;;;;;;;;;5028683;28;20335;-42
2022/10/12 10:40:21;;;;;;;30.47;20.97;;;;;;;;;;5029916;28;20172;-43
2022/10/12 10:42:49;;;;;;;32.77;20.03;;;;;;;;;;5031055;28;20331;-43
2022/10/12 10:45:22;;;;;;;29.90;20.37;;;;;;;;;;5032551;28;20611;-41
2022/10/12 10:47:48;;;;;;;32.83;21.33;;;;;;;;;;5030295;28;20554;-43
2022/10/12 10:50:24;;;;;;;30.40;20.93;;;;;;;;;;5027154;28;20176;-43
2022/10/12 10:52:55;;;;;;;30.67;20.70;;;;;;;;;;5029711;28;20573;-43
2022/10/12 10:55:40;;;;;;;31.97;20.77;;;;;;;;;;5030736;28;20736;-43
2022/10/12 10:58:19;;;;;;;36.60;20.37;;;;;;;;;;5030003;28;20486;-43
2022/10/12 11:00:47;;;;;;;30.47;20.20;;;;;;;;;;5023834;28;20176;-43
2022/10/12 11:03:30;;;;;;;33.40;19.60;;;;;;;;;;5029915;28;20203;-43
2022/10/12 11:06:14;;;;;;;29.20;18.67;;;;;;;;;;5032765;28;20624;-43
2022/10/12 11:08:41;;;;;;;25.60;18.23;;;;;;;;;;5029329;28;20184;-43
2022/10/12 11:11:20;;;;;;;24.23;18.67;;;;;;;;;;5027890;28;20287;-43
2022/10/12 11:14:03;;;;;;;25.00;18.40;;;;;;;;;;5024752;28;20179;-41
2022/10/12 11:16:33;;;;;;;30.13;18.40;;;;;;;;;;5032740;28;20277;-43
2022/10/12 11:19:01;;;;;;;28.47;16.47;;;;;;;;;;5028529;28;21317;-43
2022/10/12 11:21:51;;;;;;;24.00;16.43;;;;;;;;;;5025584;28;20296;-43
2022/10/12 11:24:19;;;;;;;27.07;18.47;;;;;;;;;;5021770;28;20776;-42
2022/10/12 11:26:49;;;;;;;25.87;16.93;;;;;;;;;;5030270;28;20187;-43
2022/10/12 11:29:16;;;;;;;26.53;18.43;;;;;;;;;;5031151;28;20175;-43
2022/10/12 11:31:48;;;;;;;20.23;13.57;;;;;;;;;;5029635;28;20599;-43
2022/10/12 11:34:18;;;;;;;28.00;13.90;;;;;;;;;;5029414;28;20180;-43
2022/10/12 11:36:45;;;;;;;19.93;14.40;;;;;;;;;;5028196;28;20204;-43
2022/10/12 11:39:17;;;;;;;24.97;14.87;;;;;;;;;;5026662;28;20452;-43
2022/10/12 11:41:48;;;;;;;21.47;14.00;;;;;;;;;;5032151;28;20168;-43
2022/10/12 11:44:33;;;;;;;22.43;14.13;;;;;;;;;;5027513;28;20249;-43
2022/10/12 11:47:01;;;;;;;19.47;15.27;;;;;;;;;;5026243;28;20809;-42
2022/10/12 11:49:32;;;;;;;21.40;14.67;;;;;;;;;;5028838;28;20181;-43
2022/10/12 11:52:00;;;;;;;21.87;14.87;;;;;;;;;;5030809;28;20710;-43
2022/10/12 11:54:31;;;;;;;24.50;15.83;;;;;;;;;;5032807;28;20315;-43
2022/10/12 11:57:00;;;;;;;27.93;16.67;;;;;;;;;;5029290;28;20612;-43
2022/10/12 11:59:38;;;;;;;23.90;15.07;;;;;;;;;;5024606;28;20180;-43
2022/10/12 12:02:07;;;;;;;28.23;16.20;;;;;;;;;;5026349;28;20257;-43
2022/10/12 12:04:35;;;;;;;20.47;13.67;;;;;;;;;;5030758;28;20631;-43
2022/10/12 12:07:31;;;;;;;25.67;13.83;;;;;;;;;;5029769;28;20504;-43
2022/10/12 12:09:57;;;;;;;21.73;14.10;;;;;;;;;;5017006;28;20431;-43
2022/10/12 12:12:32;;;;;;;24.93;14.80;;;;;;;;;;5027447;28;20551;-43
2022/10/12 12:14:59;;;;;;;20.87;13.97;;;;;;;;;;5031756;28;20235;-43
2022/10/12 12:17:27;;;;;;;23.80;14.80;;;;;;;;;;5031869;28;20447;-43
2022/10/12 12:19:54;;;;;;;27.70;15.53;;;;;;;;;;5028711;28;20989;-43
2022/10/12 12:22:23;;;;;;;24.00;15.63;;;;;;;;;;5026451;28;20588;-43
2022/10/12 12:24:55;;;;;;;23.07;14.63;;;;;;;;;;5028292;28;20176;-43
2022/10/12 12:27:27;;;;;;;29.90;15.33;;;;;;;;;;5029572;28;20204;-43
2022/10/12 12:29:53;;;;;;;17.43;12.73;;;;;;;;;;5027553;28;20539;-43
2022/10/12 12:32:20;;;;;;;21.67;14.20;;;;;;;;;;5031582;28;20417;-43
2022/10/12 12:34:52;;;;;;;28.03;15.50;;;;;;;;;;5024683;28;20187;-43
2022/10/12 12:37:19;;;;;;;25.10;15.07;;;;;;;;;;5028160;28;20214;-43
2022/10/12 12:39:50;;;;;;;23.60;13.50;;;;;;;;;;5026545;28;20172;-43
2022/10/12 12:42:21;;;;;;;26.20;12.73;;;;;;;;;;5027532;28;20176;-43
2022/10/12 12:44:47;;;;;;;17.00;10.90;;;;;;;;;;5024196;28;20732;-42
2022/10/12 12:47:13;;;;;;;18.70;11.43;;;;;;;;;;5024762;28;20176;-43
2022/10/12 12:49:42;;;;;;;20.37;11.33;;;;;;;;;;5028959;28;20796;-43
2022/10/12 12:52:11;;;;;;;22.43;11.43;;;;;;;;;;5030683;28;20222;-43
2022/10/12 12:54:44;;;;;;;20.67;12.03;;;;;;;;;;5024247;28;20805;-43
2022/10/12 12:57:10;;;;;;;19.23;10.87;;;;;;;;;;5025893;28;20532;-44
2022/10/12 12:59:44;;;;;;;17.50;10.97;;;;;;;;;;5028568;28;20699;-43
2022/10/12 13:02:16;;;;;;;16.63;9.77;;;;;;;;;;5028705;28;20214;-43
2022/10/12 13:04:48;;;;;;;15.73;9.67;;;;;;;;;;5028328;28;20273;-43
2022/10/12 13:07:27;;;;;;;16.17;8.73;;;;;;;;;;5026616;28;20206;-43
2022/10/12 13:09:56;;;;;;;15.00;9.67;;;;;;;;;;5027181;28;20180;-44
2022/10/12 13:12:22;;;;;;;15.80;8.60;;;;;;;;;;5027924;28;20168;-44
2022/10/12 13:15:03;;;;;;;12.87;7.17;;;;;;;;;;5027423;28;20178;-43
2022/10/12 13:17:53;;;;;;;15.40;7.77;;;;;;;;;;5025326;28;20306;-44
2022/10/12 13:20:24;;;;;;;16.33;8.13;;;;;;;;;;5020884;28;20191;-44
2022/10/12 13:22:53;;;;;;;16.43;7.67;;;;;;;;;;5030248;28;20839;-44
2022/10/12 13:25:27;;;;;;;14.10;8.33;;;;;;;;;;5026039;28;20271;-45
2022/10/12 13:27:53;;;;;;;15.00;7.67;;;;;;;;;;5027456;28;20520;-44
2022/10/12 13:30:31;;;;;;;12.40;7.30;;;;;;;;;;5024392;28;20175;-44
2022/10/12 13:33:10;;;;;;;13.33;7.83;;;;;;;;;;5029460;28;20273;-44
2022/10/12 13:35:52;;;;;;;12.63;7.27;;;;;;;;;;5024451;28;20931;-45
2022/10/12 13:38:20;;;;;;;13.27;6.77;;;;;;;;;;5026054;28;20489;-44
2022/10/12 13:40:51;;;;;;;12.93;7.50;;;;;;;;;;5022782;28;20186;-44
2022/10/12 13:43:20;;;;;;;17.47;7.50;;;;;;;;;;5018296;28;20184;-44
2022/10/12 13:45:47;;;;;;;13.63;7.17;;;;;;;;;;5023715;28;20177;-44
2022/10/12 13:48:21;;;;;;;12.63;7.23;;;;;;;;;;5025974;28;20184;-45
2022/10/12 13:50:51;;;;;;;15.77;7.63;;;;;;;;;;5023152;28;20173;-44
2022/10/12 13:53:17;;;;;;;14.13;7.30;;;;;;;;;;5027076;28;20179;-44
2022/10/12 13:55:49;;;;;;;16.60;8.27;;;;;;;;;;5026604;28;20653;-44
2022/10/12 13:58:29;;;;;;;17.67;8.07;;;;;;;;;;5026455;28;20282;-44
2022/10/12 14:00:55;;;;;;;12.23;7.50;;;;;;;;;;5024756;28;20615;-44
2022/10/12 14:03:26;;;;;;;13.60;7.47;;;;;;;;;;5023041;28;20964;-43
2022/10/12 14:05:53;;;;;;;15.43;7.93;;;;;;;;;;5024504;28;20938;-43
2022/10/12 14:08:23;;;;;;;10.17;6.27;;;;;;;;;;5026585;28;20671;-43
2022/10/12 14:10:49;;;;;;;17.40;7.87;;;;;;;;;;5028309;28;20689;-43
2022/10/12 14:13:20;;;;;;;12.80;6.90;;;;;;;;;;5021223;28;20775;-43
2022/10/12 14:15:46;;;;;;;12.60;7.30;;;;;;;;;;5022671;28;20879;-43
2022/10/12 14:18:31;;;;;;;13.37;7.47;;;;;;;;;;5026820;28;20282;-43
2022/10/12 14:21:27;;;;;;;12.00;6.50;;;;;;;;;;5029102;28;20179;-43
2022/10/12 14:23:54;;;;;;;15.33;6.90;;;;;;;;;;5025467;28;20264;-44
2022/10/12 14:26:32;;;;;;;13.03;6.37;;;;;;;;;;5025275;28;20883;-44
2022/10/12 14:28:59;;;;;;;10.77;6.37;;;;;;;;;;5022003;28;20176;-44
2022/10/12 14:31:43;;;;;;;14.17;7.10;;;;;;;;;;5028606;28;20187;-43